Tiempo atmosférico en la estación meteorológica de Capdepera, Illes Balears (57 m.)

Fecha
DESCASC
Temp. máxima en grados centígrados (hora)
DESCASC
Temp. mínima en grados centígrados (hora)
DESCASC
Temp. media en grados centígrados
DESCASC
Racha de viento máxima en m/sg (hora)
DESCASC
Velocidad máxima media en intervalos de 10 minutos(hora)
DESCASC
Precipitaciones diarias en mm
DESCASC
Precipitaciones de 00:00 a 06:00 en mm
DESCASC
Precipitaciones de 06:00 a 12:00 en mm
DESCASC
Precipitaciones de 12:00 a 18:00 en mm
DESCASC
Precipitaciones de 18:00 a 24:00 en mm
DESCASC
10-12-2017 18 (13:20) 10.3 (00:00) 14.2 18.33 (21:50) 12.22 (21:50) 0 0 0 0 0
09-12-2017 13 (00:10) 8.4 (09:50) 10.7 15.83 (09:30) 12.78 (09:20) 0.4 0 0.2 0.2 0
08-12-2017 18.2 (13:20) 11.2 (07:20) 14.7 12.78 (21:40) 10.28 (21:30) 0 0 0 0 0
07-12-2017 18.1 (13:20) 11.8 (00:00) 15 9.44 (11:30) 6.67 (13:50) 0 0 0 0 0
06-12-2017 18.2 (14:00) 10.2 (00:00) 14.2 7.78 (15:30) 5.28 (02:00) 0 0 0 0 0
05-12-2017 17.6 (12:00) 10.1 (00:00) 13.9 6.11 (02:20) 5.28 (05:10) 0 0 0 0 0
04-12-2017 16.1 (12:00) 8.3 (00:00) 12.2 15.28 (02:20) 10.83 (02:10) 0 0 0 0 0
03-12-2017 12.5 (16:10) 4.7 (00:00) 8.6 25.83 (03:20) 20.28 (03:10) 4.1 3.7 0.4 0 0
02-12-2017 8.7 (02:30) 2.3 (00:00) 5.5 25.83 (00:10) 19.44 (00:50) 5.7 1.4 3.1 0.9 0.3
01-12-2017 15.8 (12:50) 3.8 (00:00) 9.8 27.5 (23:10) 21.94 (23:10) 13.7 0 0.1 6.5 7.1
30-11-2017 11.3 (11:30) 7 (00:00) 9.2 19.72 (07:40) 15.56 (07:20) 6.5 5.9 0 0.2 0.4
29-11-2017 14.8 (02:00) 9.7 (00:00) 12.3 14.44 (20:20) 12.5 (20:20) 21 2.2 12.3 1.5 5
28-11-2017 17.6 (11:40) 11.3 (00:00) 14.5 12.22 (11:50) 8.33 (14:40) 0 0 0 0 0
27-11-2017 15.4 (12:30) 9.9 (00:00) 12.6 9.44 (08:40) 7.22 (08:50) 0 0 0 0 0
26-11-2017 14.2 (00:20) 9.6 (00:00) 11.9 18.33 (05:30) 14.17 (05:20) 2.9 0 0.8 0.2 1.9
25-11-2017 20.5 (13:00) 13.8 (00:00) 17.2 19.17 (16:30) 13.06 (16:20) 0 0 0 0 0
24-11-2017 22 (12:30) 14.9 (00:00) 18.4 12.22 (23:40) 8.61 (23:20) 0 0 0 0 0
23-11-2017 21.9 (12:20) 13.9 (00:00) 17.9 8.89 (16:20) 6.94 (14:50) 0 0 0 0 0
22-11-2017 20.5 (13:10) 13.8 (00:00) 17.2 9.17 (11:50) 7.22 (11:50) 0 0 0 0 0
21-11-2017 21.1 (13:00) 13.3 (00:00) 17.2 7.78 (17:40) 5.83 (17:40) 0 0 0 0 0
20-11-2017 -- (--) -- (--) -- -- (--) -- (--) -- -- -- 0 0
19-11-2017 -- (--) -- (--) -- -- (--) -- (--) -- 0 0 0 --
18-11-2017 20.1 (00:50) 12.8 (00:00) 16.5 11.67 (01:30) 9.72 (03:40) 0 0 0 0 0
17-11-2017 19.6 (10:30) 12.5 (00:00) 16.1 7.78 (21:10) 6.39 (21:10) 0.1 0 0.1 0 0
16-11-2017 19 (11:00) 12.2 (00:00) 15.6 8.33 (16:10) 6.11 (16:00) 0 0 0 0 0
15-11-2017 17.9 (12:10) 12.5 (00:00) 15.2 18.06 (00:10) 14.44 (00:20) 0 0 0 0 0

Gráficas

Temp. máximas Temp. mínimas Temp. medias Precipitaciones Rachas de viento máximas Velocidades máximas media en intervalos de 10 minutos

Datos horarios

Fecha y hora oficial Temperatura (ºC) Velocidad del viento (km/h) Dirección del viento Racha (km/h) Dirección de racha Precipitación (mm) Presión (hPa) Tendencia (hPa) Humedad (%)
2017-12-14 23:00:00 13.9 5 Nordeste 34 Sudoeste 0 -- -- 94
2017-12-14 22:00:00 14.1 17 Sur 32 Sur 0 -- -- 94
2017-12-14 21:00:00 13.9 11 Sur 34 Sudoeste 0 -- -- 94
2017-12-14 20:00:00 13.8 13 Sudoeste 46 Sudoeste 0 -- -- 90
2017-12-14 19:00:00 13.9 33 Sudoeste 52 Sudoeste 0 -- -- 89
2017-12-14 18:00:00 14 32 Sudoeste 42 Sudoeste 0 -- -- 89
2017-12-14 17:00:00 14.7 27 Sudoeste 45 Sudoeste 0 -- -- 89
2017-12-14 16:00:00 15.6 33 Sudoeste 41 Sudoeste 0 -- -- 86
2017-12-14 15:00:00 17 29 Sudoeste 36 Sudoeste 0 -- -- 80
2017-12-14 14:00:00 18.5 8 Sudoeste 25 Sudoeste 0 -- -- 74
2017-12-14 13:00:00 19.4 15 Sudoeste 32 Sudoeste 0 -- -- 68
2017-12-14 12:00:00 19.2 13 Oeste 31 Sudoeste 0 -- -- 68
2017-12-14 11:00:00 17.9 18 Sudoeste 31 Sudoeste 0 -- -- 72
2017-12-14 10:00:00 15.8 19 Oeste 49 Sudoeste 0 -- -- 80
2017-12-14 09:00:00 13.6 25 Sudoeste 49 Sudoeste 0 -- -- 85
2017-12-14 08:00:00 12.6 35 Sudoeste 49 Sudoeste 0 -- -- 84
2017-12-14 07:00:00 12.4 25 Oeste 44 Oeste 0 -- -- 83
2017-12-14 06:00:00 12.6 14 Sudoeste 68 Sudoeste 0 -- -- 83
2017-12-14 05:00:00 12.4 26 Sudoeste 44 Sudoeste 0 -- -- 82
2017-12-14 04:00:00 13 29 Sudoeste 43 Sudoeste 0 -- -- 80
2017-12-14 03:00:00 12.5 22 Sudoeste 49 Sudoeste 0 -- -- 80
2017-12-14 02:00:00 13 33 Sudoeste 43 Sudoeste 0 -- -- 80
2017-12-14 01:00:00 12.8 32 Sudoeste 42 Sudoeste 0 -- -- 77
2017-12-14 00:00:00 12.6 27 Sudoeste 43 Sudoeste 0 -- -- 75
2017-12-13 23:00:00 12.6 33 Sudoeste 46 Sudoeste 0 -- -- 74
2017-12-13 22:00:00 12.2 28 Sudoeste 42 Sudoeste 0 -- -- 71
2017-12-13 21:00:00 11.6 5 Oeste 30 Sudoeste 0 -- -- 75
2017-12-13 20:00:00 11.9 17 Sudoeste 32 Sudoeste 0 -- -- 77
2017-12-13 19:00:00 11.9 22 Sudoeste 34 Sudoeste 0 -- -- 76
2017-12-13 18:00:00 11.5 14 Sudoeste 34 Sudoeste 0 -- -- 77
2017-12-13 17:00:00 12.3 24 Sudoeste 39 Sudoeste 0 -- -- 71
2017-12-13 16:00:00 13.7 17 Sudoeste 33 Sudoeste 0 -- -- 65
2017-12-13 15:00:00 13.6 21 Sudoeste 33 Sudoeste 0 -- -- 59
2017-12-13 14:00:00 14.7 16 Sudoeste 31 Sudoeste 0 -- -- 57
2017-12-13 13:00:00 15.7 13 Sudoeste 26 Sudoeste 0 -- -- 64
2017-12-13 12:00:00 15.2 17 Sudoeste 27 Sudoeste 0 -- -- 67
2017-12-13 11:00:00 14.6 15 Sudoeste 24 Sudoeste 0 -- -- 68
2017-12-13 10:00:00 14.5 9 Sudoeste 15 Sudoeste 0 -- -- 65
2017-12-13 09:00:00 11.9 15 Sudoeste 17 Sudoeste 0 -- -- 68
2017-12-13 08:00:00 10.2 12 Sudoeste 14 Sudoeste 0 -- -- 68
2017-12-13 07:00:00 10 6 Oeste 9 Noroeste 0 -- -- 70
2017-12-13 06:00:00 10.6 5 Norte 22 Norte 0 -- -- 70
2017-12-13 05:00:00 10.8 14 Norte 26 Norte 0 -- -- 64
2017-12-13 04:00:00 10.7 15 Norte 32 Norte 0 -- -- 68
2017-12-13 03:00:00 11 23 Norte 32 Norte 0 -- -- 75
2017-12-13 02:00:00 10.2 18 Norte 53 Norte 0.1 -- -- 91
2017-12-13 01:00:00 9.6 44 Norte 65 Norte 0.7 -- -- 96
2017-12-13 00:00:00 10.8 48 Norte 64 Norte 0 -- -- 93
2017-12-12 23:00:00 11.5 39 Norte 49 Norte 0.1 -- -- 89
2017-12-12 22:00:00 10.2 35 Nordeste 51 Norte 0.3 -- -- 96
2017-12-12 21:00:00 10.9 43 Norte 58 Norte 0.1 -- -- 97
2017-12-12 20:00:00 11.8 44 Norte 61 Norte 0 -- -- 95
2017-12-12 19:00:00 12.6 19 Norte 34 Norte 0 -- -- 82
2017-12-12 18:00:00 12.9 22 Norte 48 Norte 0 -- -- 80
2017-12-12 17:00:00 13 25 Norte 39 Norte 0 -- -- 77
2017-12-12 16:00:00 13.5 28 Norte 42 Norte 0 -- -- 83
2017-12-12 15:00:00 13.4 28 Norte 41 Norte 0 -- -- 87
2017-12-12 14:00:00 13.5 26 Norte 38 Norte 0 -- -- 82
2017-12-12 13:00:00 13.5 18 Norte 41 Norte 0 -- -- 85
2017-12-12 12:00:00 12.9 27 Norte 43 Norte 0 -- -- 91
2017-12-12 11:00:00 13.2 19 Norte 33 Norte 0.1 -- -- 92
2017-12-12 10:00:00 13.3 7 Noroeste 10 Noroeste 0 -- -- 82
2017-12-12 09:00:00 12.5 4 Sudoeste 10 Sur 0 -- -- 87
2017-12-12 08:00:00 12.4 8 Sur 13 Sur 0 -- -- 87
2017-12-12 07:00:00 12.5 7 Sudoeste 15 Noroeste 0 -- -- 89
2017-12-12 06:00:00 12.5 11 Noroeste 17 Noroeste 0 -- -- 89
2017-12-12 05:00:00 12.5 12 Oeste 17 Oeste 0 -- -- 91
2017-12-12 04:00:00 12.4 17 Oeste 21 Sudoeste 0 -- -- 91
2017-12-12 03:00:00 12.3 17 Sudoeste 20 Sudoeste 0 -- -- 90
2017-12-12 02:00:00 12 14 Oeste 16 Sudoeste 0 -- -- 89
2017-12-12 01:00:00 12 14 Sudoeste 23 Sudoeste 0 -- -- 89
2017-12-12 00:00:00 12.2 18 Sudoeste 30 Sudoeste 0 -- -- 87
2017-12-11 23:00:00 12.6 15 Sudoeste 36 Sudoeste 0 -- -- 83
2017-12-11 22:00:00 12.8 28 Sudoeste 43 Sudoeste 0 -- -- 82
2017-12-11 21:00:00 12.7 29 Sudoeste 44 Sudoeste 0 -- -- 84
2017-12-11 20:00:00 12.7 24 Sudoeste 37 Sudoeste 0 -- -- 87
2017-12-11 19:00:00 12.6 24 Sudoeste 43 Sudoeste 0 -- -- 92
2017-12-11 18:00:00 12.8 24 Sudoeste 43 Sudoeste 0 -- -- 94
2017-12-11 17:00:00 13 32 Sudoeste 46 Sudoeste 0 -- -- 94
2017-12-11 16:00:00 12.9 27 Sudoeste 46 Sudoeste 0.1 -- -- 94
2017-12-11 15:00:00 13.6 37 Sudoeste 85 Sudoeste 0 -- -- 92
2017-12-11 14:00:00 17.7 53 Sudoeste 95 Sur 0.1 -- -- 83
2017-12-11 13:00:00 17.6 59 Sudoeste 97 Sur 0 -- -- 78
2017-12-11 12:00:00 17.1 51 Sur 92 Sudoeste 0 -- -- 86
2017-12-11 11:00:00 17.2 44 Sudoeste 77 Sudoeste 0 -- -- 90
2017-12-11 10:00:00 16.6 33 Sudoeste 65 Sur 0 -- -- 92
2017-12-11 09:00:00 16.5 44 Sudoeste 70 Sur 0 -- -- 92
2017-12-11 08:00:00 16.2 40 Sur 68 Sudoeste 0 -- -- 92
2017-12-11 07:00:00 15.8 45 Sur 76 Sur 0 -- -- 92
2017-12-11 06:00:00 15.7 53 Sur 82 Sur 0 -- -- 90
2017-12-11 05:00:00 15.7 52 Sudoeste 86 Sur 0 -- -- 91
2017-12-11 04:00:00 15.7 53 Sur 81 Sudoeste 0 -- -- 91
2017-12-11 03:00:00 15.6 52 Sudoeste 82 Sudoeste 0 -- -- 92
2017-12-11 02:00:00 15.6 56 Sudoeste 81 Sudoeste 0 -- -- 93
2017-12-11 01:00:00 15.3 35 Sudoeste 63 Sudoeste 0 -- -- 93
2017-12-11 00:00:00 15.5 41 Sudoeste 66 Sudoeste 0 -- -- 93
2017-12-10 23:00:00 15.4 43 Sudoeste 65 Sudoeste 0 -- -- 94
2017-12-10 22:00:00 15.4 44 Sudoeste 66 Sudoeste 0 -- -- 93
2017-12-10 21:00:00 15.4 35 Sudoeste 59 Sudoeste 0 -- -- 93
2017-12-10 20:00:00 15.5 33 Sudoeste 45 Sudoeste 0 -- -- 91
2017-12-10 19:00:00 15.4 23 Sudoeste 42 Sur 0 -- -- 89
2017-12-10 18:00:00 15.7 24 Sudoeste 42 Sudoeste 0 -- -- 80
2017-12-10 17:00:00 15.9 25 Sudoeste 43 Sudoeste 0 -- -- 80
2017-12-10 16:00:00 16.2 22 Sudoeste 44 Sudoeste 0 -- -- 82
2017-12-10 15:00:00 16.6 18 Sudoeste 46 Sudoeste 0 -- -- 80
2017-12-10 14:00:00 17.2 31 Sudoeste 49 Sudoeste 0 -- -- 81
2017-12-10 13:00:00 17.1 35 Sudoeste 53 Sudoeste 0 -- -- 82
2017-12-10 12:00:00 16.6 39 Sudoeste 53 Sudoeste 0 -- -- 86
2017-12-10 11:00:00 16.4 40 Sudoeste 52 Sudoeste 0 -- -- 90
2017-12-10 10:00:00 16 23 Sudoeste 46 Sudoeste 0 -- -- 92
2017-12-10 09:00:00 15.3 38 Sudoeste 51 Sudoeste 0 -- -- 97
2017-12-10 08:00:00 13.8 32 Sudoeste 51 Sudoeste 0 -- -- 98
2017-12-10 07:00:00 13.1 28 Sudoeste 44 Sudoeste 0 -- -- 98
2017-12-10 06:00:00 12.4 30 Sudoeste 52 Sudoeste 0 -- -- 96
2017-12-10 05:00:00 12.1 37 Sudoeste 53 Sudoeste 0 -- -- 94
2017-12-10 04:00:00 11.9 24 Sudoeste 37 Sur 0 -- -- 93
2017-12-10 03:00:00 11.8 27 Sudoeste 40 Sudoeste 0 -- -- 94
2017-12-10 02:00:00 11.7 21 Sur 27 Sudoeste 0 -- -- 92
2017-12-10 01:00:00 10.9 19 Sur 27 Sur 0 -- -- 91
2017-12-10 00:00:00 10.3 19 Sudoeste 26 Sudoeste 0 -- -- 91
2017-12-09 23:00:00 9.7 15 Sudoeste 18 Sur 0 -- -- 91
2017-12-09 22:00:00 9.9 15 Sur 22 Sur 0 -- -- 90
2017-12-09 21:00:00 10.2 13 Sur 24 Sur 0 -- -- 86
2017-12-09 20:00:00 10.7 12 Sudeste 23 Este 0 -- -- 81
2017-12-09 19:00:00 10.6 12 Sudeste 22 Nordeste 0 -- -- 78
2017-12-09 18:00:00 10.5 9 Este 29 Nordeste 0 -- -- 80
2017-12-09 17:00:00 10.3 18 Nordeste 30 Nordeste 0 -- -- 84
2017-12-09 16:00:00 9.9 17 Nordeste 27 Nordeste 0 -- -- 83
2017-12-09 15:00:00 9.6 12 Nordeste 33 Nordeste 0.1 -- -- 88
2017-12-09 14:00:00 9.1 18 Nordeste 44 Nordeste 0.1 -- -- 93
2017-12-09 13:00:00 9.4 25 Nordeste 42 Nordeste 0 -- -- 90
2017-12-09 12:00:00 9.9 31 Nordeste 46 Nordeste 0.1 -- -- 87
2017-12-09 11:00:00 9.2 37 Nordeste 54 Nordeste 0 -- -- 95
2017-12-09 10:00:00 9 40 Nordeste 57 Nordeste 0.1 -- -- 98
2017-12-09 09:00:00 10 41 Nordeste 51 Nordeste 0 -- -- 97
2017-12-09 08:00:00 9.9 35 Nordeste 57 Nordeste 0 -- -- 98
2017-12-09 07:00:00 11.7 11 Este 27 Este 0 -- -- 95
2017-12-09 06:00:00 12.5 7 Este 17 Sudeste 0 -- -- 87
2017-12-09 05:00:00 12.4 8 Sudeste 18 Nordeste 0 -- -- 86
2017-12-09 04:00:00 12.5 11 Nordeste 27 Nordeste 0 -- -- 84
2017-12-09 03:00:00 12.7 14 Este 30 Nordeste 0 -- -- 86
2017-12-09 02:00:00 12.6 18 Nordeste 32 Nordeste 0 -- -- 85
2017-12-09 01:00:00 12.7 20 Nordeste 33 Nordeste 0 -- -- 85
2017-12-09 00:00:00 12.8 23 Nordeste 37 Nordeste 0 -- -- 86
2017-12-08 23:00:00 12.9 28 Nordeste 41 Nordeste 0 -- -- 89
2017-12-08 22:00:00 13.3 32 Nordeste 46 Norte 0 -- -- 92
2017-12-08 21:00:00 13.7 10 Oeste 17 Oeste 0 -- -- 76
2017-12-08 20:00:00 13.9 9 Oeste 12 Oeste 0 -- -- 69
2017-12-08 19:00:00 14.1 0 Calma 14 Sudoeste 0 -- -- 75
2017-12-08 18:00:00 14.4 9 Sudoeste 15 Sudoeste 0 -- -- 81
2017-12-08 17:00:00 15.2 5 Sudoeste 13 Sudoeste 0 -- -- 80
2017-12-08 16:00:00 16 8 Sudoeste 24 Sudoeste 0 -- -- 72
2017-12-08 15:00:00 16.9 17 Sudoeste 27 Sudoeste 0 -- -- 68
2017-12-08 14:00:00 16.9 18 Sudoeste 31 Sudoeste 0 -- -- 69
2017-12-08 13:00:00 16.8 11 Sudoeste 36 Sudoeste 0 -- -- 76
2017-12-08 12:00:00 16.4 24 Sudoeste 46 Sudoeste 0 -- -- 80
2017-12-08 11:00:00 14.4 34 Sudoeste 44 Sudoeste 0 -- -- 89
2017-12-08 10:00:00 14.8 17 Sudoeste 38 Sudoeste 0 -- -- 86
2017-12-08 09:00:00 13.3 25 Sudoeste 36 Sudoeste 0 -- -- 92
2017-12-08 08:00:00 11.8 14 Sur 21 Sudeste 0 -- -- 94
2017-12-08 07:00:00 11.5 13 Sudoeste 16 Oeste 0 -- -- 92
2017-12-08 06:00:00 11.8 7 Sur 17 Sudoeste 0 -- -- 89
2017-12-08 05:00:00 11.9 13 Sur 18 Sur 0 -- -- 86
2017-12-08 04:00:00 12.1 17 Sur 19 Sur 0 -- -- 83
2017-12-08 03:00:00 12.1 14 Sur 17 Sur 0 -- -- 84
2017-12-08 02:00:00 12.5 9 Sudoeste 17 Sudoeste 0 -- -- 81
2017-12-08 01:00:00 12.9 14 Sudoeste 19 Sudoeste 0 -- -- 79
2017-12-08 00:00:00 12.8 16 Sudoeste 19 Sudoeste 0 -- -- 77
2017-12-07 23:00:00 12.9 15 Sudoeste 21 Sudoeste 0 -- -- 80
2017-12-07 22:00:00 12.7 15 Sudoeste 21 Sudoeste 0 -- -- 80
2017-12-07 21:00:00 12.7 15 Sudoeste 21 Sudoeste 0 -- -- 80
2017-12-07 20:00:00 12.9 16 Sudoeste 22 Sudoeste 0 -- -- 80
2017-12-07 19:00:00 13.4 17 Sudoeste 24 Sudoeste 0 -- -- 81
2017-12-07 18:00:00 13.8 18 Sudoeste 28 Sur 0 -- -- 83
2017-12-07 17:00:00 15.2 15 Sur 24 Sur 0 -- -- 84
2017-12-07 16:00:00 15.5 21 Sur 29 Sudeste 0 -- -- 85
2017-12-07 15:00:00 15.4 22 Sudeste 34 Sur 0 -- -- 83
2017-12-07 14:00:00 16.3 24 Sur 30 Sudeste 0 -- -- 77
2017-12-07 13:00:00 17.1 21 Sur 34 Sur 0 -- -- 74
2017-12-07 12:00:00 17.2 18 Sur 34 Sur 0 -- -- 69
2017-12-07 11:00:00 16.7 18 Sur 28 Sudeste 0 -- -- 68
2017-12-07 10:00:00 16.3 18 Sur 33 Sur 0 -- -- 72
2017-12-07 09:00:00 16 10 Sur 13 Sur 0 -- -- 82
2017-12-07 08:00:00 13.3 2 Sur 11 Sur 0 -- -- 92
2017-12-07 07:00:00 12.7 4 Norte 8 Norte 0 -- -- 91
2017-12-07 06:00:00 12.6 0 Calma 3 Norte 0 -- -- 91
2017-12-07 05:00:00 12.5 0 Calma 6 Norte 0 -- -- 91
2017-12-07 04:00:00 12.5 0 Calma -- -- 0 -- -- 87
2017-12-07 03:00:00 12.5 0 Calma -- -- 0 -- -- 89
2017-12-07 02:00:00 12.2 0 Calma 8 Sur 0 -- -- 87
2017-12-07 01:00:00 12 8 Sur 10 Sudoeste 0 -- -- 86
2017-12-07 00:00:00 12 9 Sudoeste 13 Sur 0 -- -- 85
2017-12-06 23:00:00 12.3 12 Sur 13 Sur 0 -- -- 84
2017-12-06 22:00:00 11.9 10 Sudoeste 14 Sudoeste 0 -- -- 83
2017-12-06 21:00:00 12.2 13 Sudoeste 16 Sudoeste 0 -- -- 83
2017-12-06 20:00:00 12.4 13 Sur 17 Sur 0 -- -- 84
2017-12-06 19:00:00 12.6 15 Sur 18 Sur 0 -- -- 84
2017-12-06 18:00:00 12.8 14 Sur 25 Sur 0 -- -- 83
2017-12-06 17:00:00 14 15 Sur 26 Sur 0 -- -- 75
2017-12-06 16:00:00 15.4 13 Sur 28 Sudoeste 0 -- -- 71
2017-12-06 15:00:00 16.3 17 Sur 26 Sudeste 0 -- -- 68
2017-12-06 14:00:00 16.8 15 Sur 21 Sur 0 -- -- 64
2017-12-06 13:00:00 17.5 11 Sudoeste 26 Sur 0 -- -- 60
2017-12-06 12:00:00 17.7 9 Sur 21 Sudoeste 0 -- -- 62
2017-12-06 11:00:00 16.6 9 Sudoeste 16 Oeste 0 -- -- 64
2017-12-06 10:00:00 15.8 9 Oeste 15 Oeste 0 -- -- 72
2017-12-06 09:00:00 13.6 12 Oeste 13 Oeste 0 -- -- 79
2017-12-06 08:00:00 10.6 11 Oeste 14 Oeste 0 -- -- 89
2017-12-06 07:00:00 10.5 12 Oeste 14 Oeste 0 -- -- 87
2017-12-06 06:00:00 10.5 12 Oeste 14 Oeste 0 -- -- 87
2017-12-06 05:00:00 10.6 13 Oeste 15 Oeste 0 -- -- 86
2017-12-06 04:00:00 11 15 Sudoeste 18 Sudoeste 0 -- -- 83
2017-12-06 03:00:00 11.2 18 Sudoeste 20 Sudoeste 0 -- -- 83
2017-12-06 02:00:00 11.2 19 Sudoeste 21 Sudoeste 0 -- -- 83
2017-12-06 01:00:00 11.5 17 Sudoeste 19 Sudoeste 0 -- -- 80
2017-12-06 00:00:00 11.4 17 Sudoeste 21 Sudoeste 0 -- -- 80
2017-12-05 23:00:00 12 14 Sudoeste 17 Sudoeste 0 -- -- 77
2017-12-05 22:00:00 11.5 15 Sudoeste 17 Sudoeste 0 -- -- 78
2017-12-05 21:00:00 12.4 0 Calma -- -- 0 -- -- 74
2017-12-05 20:00:00 12.8 0 Calma 5 Nordeste 0 -- -- 73
2017-12-05 19:00:00 12.5 2 Noroeste 6 Noroeste 0 -- -- 71
2017-12-05 18:00:00 13.2 7 Noroeste 10 Noroeste 0 -- -- 71
2017-12-05 17:00:00 14.1 5 Noroeste 12 Norte 0 -- -- 64
2017-12-05 16:00:00 15.8 9 Norte 19 Norte 0 -- -- 59
2017-12-05 15:00:00 16.8 14 Norte 22 Norte 0 -- -- 55
2017-12-05 14:00:00 16.4 5 Norte 21 Norte 0 -- -- 53
2017-12-05 13:00:00 17.4 12 Noroeste 22 Norte 0 -- -- 53
2017-12-05 12:00:00 17.6 8 Noroeste 18 Norte 0 -- -- 57
2017-12-05 11:00:00 16.3 6 Noroeste 17 Oeste 0 -- -- 64
2017-12-05 10:00:00 15.4 8 Oeste 17 Oeste 0 -- -- 69
2017-12-05 09:00:00 13 16 Oeste 18 Oeste 0 -- -- 75
2017-12-05 08:00:00 10.8 16 Oeste 19 Oeste 0 -- -- 80
2017-12-05 07:00:00 10.8 18 Oeste 21 Oeste 0 -- -- 78
2017-12-05 06:00:00 10.5 16 Oeste 21 Oeste 0 -- -- 80
2017-12-05 05:00:00 10.2 18 Oeste 22 Oeste 0 -- -- 80
2017-12-05 04:00:00 10.4 16 Oeste 19 Oeste 0 -- -- 78
2017-12-05 03:00:00 10.8 17 Oeste 22 Oeste 0 -- -- 76
2017-12-05 02:00:00 11.1 9 Noroeste 21 Oeste 0 -- -- 74
2017-12-05 01:00:00 10.9 8 Noroeste 20 Oeste 0 -- -- 76
2017-12-05 00:00:00 10.8 10 Noroeste 21 Oeste 0 -- -- 74
2017-12-04 23:00:00 10.4 14 Oeste 17 Oeste 0 -- -- 71
2017-12-04 22:00:00 10.7 10 Oeste 15 Sudoeste 0 -- -- 66
2017-12-04 21:00:00 11 14 Sudoeste 17 Sudoeste 0 -- -- 68
2017-12-04 20:00:00 11.2 16 Sudoeste 20 Sudoeste 0 -- -- 77
2017-12-04 19:00:00 11.6 9 Noroeste 12 Noroeste 0 -- -- 72
2017-12-04 18:00:00 12.1 9 Noroeste 12 Noroeste 0 -- -- 68
2017-12-04 17:00:00 13.6 7 Oeste 16 Norte 0 -- -- 62
2017-12-04 16:00:00 14.8 6 Noroeste 18 Oeste 0 -- -- 57
2017-12-04 15:00:00 14.6 10 Oeste 22 Norte 0 -- -- 56
2017-12-04 14:00:00 14.2 15 Norte 21 Norte 0 -- -- 62
2017-12-04 13:00:00 15.7 5 Noroeste 18 Noroeste 0 -- -- 58
2017-12-04 12:00:00 16.1 3 Noroeste 27 Norte 0 -- -- 58
2017-12-04 11:00:00 13.9 8 Oeste 17 Oeste 0 -- -- 59
2017-12-04 10:00:00 12.3 14 Oeste 23 Oeste 0 -- -- 64
2017-12-04 09:00:00 9.7 18 Oeste 23 Oeste 0 -- -- 64
2017-12-04 08:00:00 8.9 19 Oeste 22 Oeste 0 -- -- 64
2017-12-04 07:00:00 8.5 20 Oeste 23 Oeste 0 -- -- 66
2017-12-04 06:00:00 8.3 20 Oeste 23 Oeste 0 -- -- 68
2017-12-04 05:00:00 8.7 18 Oeste 25 Oeste 0 -- -- 66
2017-12-04 04:00:00 9.3 20 Sudoeste 49 Norte 0 -- -- 65
2017-12-04 03:00:00 11.8 34 Norte 55 Norte 0 -- -- 62
2017-12-04 02:00:00 11.3 37 Norte 48 Norte 0 -- -- 59
2017-12-04 01:00:00 11.2 35 Norte 49 Norte 0 -- -- 61
2017-12-04 00:00:00 10.8 25 Norte 36 Norte 0 -- -- 67
2017-12-03 23:00:00 8.9 15 Oeste 24 Oeste 0 -- -- 67
2017-12-03 22:00:00 8.3 19 Oeste 25 Oeste 0 -- -- 74
2017-12-03 21:00:00 8.4 17 Sudoeste 25 Oeste 0 -- -- 75
2017-12-03 20:00:00 9.1 18 Oeste 24 Oeste 0 -- -- 80
2017-12-03 19:00:00 9.3 18 Oeste 30 Norte 0 -- -- 66
2017-12-03 18:00:00 11.6 21 Norte 44 Norte 0 -- -- 53
2017-12-03 17:00:00 11.4 40 Norte 63 Norte 0 -- -- 50
2017-12-03 16:00:00 12.1 43 Norte 57 Norte 0 -- -- 48
2017-12-03 15:00:00 11.6 45 Norte 64 Norte 0 -- -- 63
2017-12-03 14:00:00 11.3 51 Norte 67 Norte 0 -- -- 66
2017-12-03 13:00:00 10.7 52 Norte 66 Norte 0 -- -- 73
2017-12-03 12:00:00 10.3 50 Norte 69 Norte 0 -- -- 74
2017-12-03 11:00:00 9.9 56 Norte 74 Norte 0 -- -- 82
2017-12-03 10:00:00 9.2 59 Norte 77 Norte 0 -- -- 83
2017-12-03 09:00:00 8.8 57 Norte 80 Norte 0 -- -- 86
2017-12-03 08:00:00 8.6 60 Norte 80 Norte 0.2 -- -- 86
2017-12-03 07:00:00 7 58 Norte 80 Norte 0.2 -- -- 95
2017-12-03 06:00:00 6.8 61 Norte 80 Norte 0.4 -- -- 95
2017-12-03 05:00:00 6.9 66 Norte 85 Norte 0.1 -- -- 95
2017-12-03 04:00:00 7.3 67 Norte 93 Norte 0.3 -- -- 91
2017-12-03 03:00:00 6.7 67 Norte 89 Norte 0 -- -- 95
2017-12-03 02:00:00 6.5 70 Norte 87 Norte 0 -- -- 95
2017-12-03 01:00:00 6.5 61 Norte 77 Norte 2.9 -- -- 98
2017-12-03 00:00:00 6.4 63 Norte 79 Norte 0 -- -- 94
2017-12-02 23:00:00 6 37 Noroeste 69 Norte 0 -- -- 90
2017-12-02 22:00:00 6.7 51 Norte 67 Norte 0 -- -- 86
2017-12-02 21:00:00 6.4 51 Norte 66 Norte 0 -- -- 92
2017-12-02 20:00:00 3.8 16 Oeste 27 Sudoeste 0.2 -- -- 98
2017-12-02 19:00:00 3 23 Sudoeste 38 Sudoeste 0.1 -- -- 98
2017-12-02 18:00:00 3.9 23 Oeste 55 Norte 0.8 -- -- 95
2017-12-02 17:00:00 6.8 35 Norte 59 Norte 0 -- -- 85
2017-12-02 16:00:00 6.2 45 Norte 64 Norte 0 -- -- 89
2017-12-02 15:00:00 6.8 46 Norte 66 Norte 0.1 -- -- 82
2017-12-02 14:00:00 5.8 53 Norte 67 Norte 0 -- -- 86
2017-12-02 13:00:00 5.3 55 Norte 71 Norte 0 -- -- 92
2017-12-02 12:00:00 7.1 47 Norte 71 Norte 1.9 -- -- 77
2017-12-02 11:00:00 7.2 48 Norte 76 Norte 0.3 -- -- 71
2017-12-02 10:00:00 5.8 61 Norte 77 Norte 0.9 -- -- 89
2017-12-02 09:00:00 7.2 55 Norte 77 Norte 0 -- -- 81
2017-12-02 08:00:00 5.9 20 Oeste 39 Oeste 0 -- -- 72
2017-12-02 07:00:00 4 22 Oeste 32 Oeste 0 -- -- 89
2017-12-02 06:00:00 2.7 19 Sudoeste 32 Sudoeste 0 -- -- 94
2017-12-02 05:00:00 2.6 21 Sudoeste 27 Sudoeste 0 -- -- 94
2017-12-02 04:00:00 4.3 20 Sudoeste 59 Norte 0.2 -- -- 90
2017-12-02 03:00:00 4.6 34 Noroeste 80 Norte 1.2 -- -- 87
2017-12-02 02:00:00 8.6 60 Norte 82 Norte 0 -- -- 65
2017-12-02 01:00:00 8.1 67 Norte 93 Norte 0 -- -- 69
2017-12-02 00:00:00 7.8 70 Norte 99 Norte 0 -- -- 67
2017-12-01 23:00:00 7.1 73 Norte 98 Norte 0.1 -- -- 81
2017-12-01 22:00:00 6.2 61 Norte 98 Norte 0 -- -- 78
2017-12-01 21:00:00 5.7 65 Norte 82 Norte 0 -- -- 93
2017-12-01 20:00:00 4.5 65 Norte 82 Norte 1.6 -- -- 99
2017-12-01 19:00:00 4.3 65 Norte 88 Norte 5.4 -- -- 99
2017-12-01 18:00:00 4.4 56 Norte 80 Norte 3.3 -- -- 99
2017-12-01 17:00:00 6.7 59 Norte 92 Norte 3.1 -- -- 98
2017-12-01 16:00:00 10.6 54 Norte 77 Norte 0.1 -- -- 88
2017-12-01 15:00:00 12 13 Norte 44 Norte 0 -- -- 77
2017-12-01 14:00:00 14 9 Noroeste 43 Noroeste 0 -- -- 65
2017-12-01 13:00:00 15.2 7 Noroeste 36 Oeste 0 -- -- 61
2017-12-01 12:00:00 12.7 16 Oeste 42 Sudoeste 0 -- -- 72
2017-12-01 11:00:00 14 21 Sudoeste 38 Oeste 0 -- -- 63
2017-12-01 10:00:00 11.3 17 Oeste 47 Sudoeste 0.1 -- -- 72
2017-12-01 09:00:00 10.6 19 Sudoeste 40 Sudoeste 0 -- -- 69
2017-12-01 08:00:00 8.1 13 Sudoeste 21 Sudoeste 0 -- -- 85
2017-12-01 07:00:00 7.7 16 Oeste 30 Sudoeste 0 -- -- 84
2017-12-01 06:00:00 7.6 12 Sudoeste 27 Sudoeste 0 -- -- 78
2017-12-01 05:00:00 7.9 19 Sudoeste 26 Sudoeste 0 -- -- 77
2017-12-01 04:00:00 7.7 17 Sudoeste 29 Sudoeste 0 -- -- 83
2017-12-01 03:00:00 7.6 24 Sudoeste 33 Sudoeste 0 -- -- 82
2017-12-01 02:00:00 7.3 15 Sudoeste 21 Sudoeste 0 -- -- 86
2017-12-01 01:00:00 7.4 16 Sur 20 Sudoeste 0 -- -- 90
2017-12-01 00:00:00 8.2 8 Sudoeste 22 Sudoeste 0 -- -- 87
2017-11-30 23:00:00 7.4 19 Sudoeste 25 Sudoeste 0 -- -- 87
2017-11-30 22:00:00 7.5 14 Sudoeste 31 Norte 0.2 -- -- 93
2017-11-30 21:00:00 10.8 22 Norte 40 Norte 0 -- -- 74
2017-11-30 20:00:00 10.4 22 Norte 41 Norte 0 -- -- 74
2017-11-30 19:00:00 10.4 28 Norte 44 Norte 0.2 -- -- 80
2017-11-30 18:00:00 10.1 27 Norte 46 Norte 0.1 -- -- 79
2017-11-30 17:00:00 9.2 41 Norte 54 Norte 0.1 -- -- 89
2017-11-30 16:00:00 10.6 31 Norte 55 Norte 0 -- -- 77
2017-11-30 15:00:00 10.5 44 Norte 62 Norte 0 -- -- 71
2017-11-30 14:00:00 10.6 44 Norte 68 Norte 0 -- -- 70
2017-11-30 13:00:00 11.1 47 Norte 68 Norte 0 -- -- 74
2017-11-30 12:00:00 10.7 44 Norte 64 Norte 0 -- -- 72
2017-11-30 11:00:00 11 53 Norte 69 Norte 0 -- -- 71
2017-11-30 10:00:00 10.8 51 Norte 68 Norte 0 -- -- 67
2017-11-30 09:00:00 10.5 48 Norte 67 Norte 0 -- -- 77
2017-11-30 08:00:00 10.5 52 Norte 71 Norte 0 -- -- 71
2017-11-30 07:00:00 10.7 52 Norte 67 Norte 0 -- -- 78
2017-11-30 06:00:00 10.4 50 Norte 64 Norte 0 -- -- 73
2017-11-30 05:00:00 10.6 46 Norte 63 Nordeste 0.1 -- -- 77
2017-11-30 04:00:00 9.4 36 Norte 59 Norte 4.8 -- -- 92
2017-11-30 03:00:00 9.4 35 Norte 52 Norte 0.6 -- -- 95
2017-11-30 02:00:00 9.8 33 Norte 54 Norte 0.1 -- -- 96
2017-11-30 01:00:00 10.2 43 Norte 59 Norte 0.3 -- -- 96
2017-11-30 00:00:00 10.7 31 Norte 52 Norte 0.6 -- -- 92
2017-11-29 23:00:00 10.7 33 Norte 49 Norte 1.8 -- -- 94
2017-11-29 22:00:00 10.2 27 Nordeste 40 Nordeste 2 -- -- 98
2017-11-29 21:00:00 10.4 29 Nordeste 52 Nordeste 0.6 -- -- 99
2017-11-29 20:00:00 11.6 7 Norte 12 Norte 0 -- -- 96
2017-11-29 19:00:00 11.4 3 Oeste 11 Este 0 -- -- 96
2017-11-29 18:00:00 11.8 5 Nordeste 15 Nordeste 0 -- -- 96
2017-11-29 17:00:00 11.8 8 Este 17 Nordeste 0 -- -- 97
2017-11-29 16:00:00 11.5 11 Nordeste 18 Nordeste 0.2 -- -- 97
2017-11-29 15:00:00 11.3 7 Nordeste 16 Nordeste 0.1 -- -- 97
2017-11-29 14:00:00 11.6 6 Este 19 Este 0.6 -- -- 97
2017-11-29 13:00:00 11.4 9 Este 18 Nordeste 0.6 -- -- 97
2017-11-29 12:00:00 11.4 6 Sudeste 21 Nordeste 2.8 -- -- 96
2017-11-29 11:00:00 11.6 3 Nordeste 24 Este 0.9 -- -- 93
2017-11-29 10:00:00 12.1 12 Este 30 Nordeste 0.4 -- -- 97
2017-11-29 09:00:00 12 18 Nordeste 26 Nordeste 1.6 -- -- 99
2017-11-29 08:00:00 12.4 22 Norte 41 Norte 3.4 -- -- 99
2017-11-29 07:00:00 12.7 24 Norte 40 Norte 3.2 -- -- 99
2017-11-29 06:00:00 13.4 0 Calma 11 Sur 0.9 -- -- 98
2017-11-29 05:00:00 13.3 5 Sur 12 Sur 0.9 -- -- 97
2017-11-29 04:00:00 14.2 11 Sur 13 Sur 0.4 -- -- 94
2017-11-29 03:00:00 14.5 2 Sudoeste 10 Sur 0 -- -- 84
2017-11-29 02:00:00 14.8 0 Calma 9 Noroeste 0 -- -- 84
2017-11-29 01:00:00 14.6 8 Noroeste 12 Oeste 0 -- -- 85
2017-11-29 00:00:00 14.5 5 Oeste 10 Oeste 0 -- -- 89
2017-11-28 23:00:00 14.5 0 Calma 8 Norte 0 -- -- 91
2017-11-28 22:00:00 14.4 4 Oeste 17 Sudoeste 0 -- -- 92
2017-11-28 21:00:00 14.3 12 Sudoeste 17 Sudoeste 0 -- -- 92
2017-11-28 20:00:00 14.3 9 Oeste 18 Sudoeste 0 -- -- 92
2017-11-28 19:00:00 14.5 13 Sudoeste 19 Sudoeste 0 -- -- 93
2017-11-28 18:00:00 14.7 15 Sudoeste 26 Sudoeste 0 -- -- 93
2017-11-28 17:00:00 15.4 22 Sudoeste 37 Sur 0 -- -- 92
2017-11-28 16:00:00 16.2 24 Sur 42 Sudoeste 0 -- -- 87
2017-11-28 15:00:00 16.7 22 Sur 44 Sudoeste 0 -- -- 84
2017-11-28 14:00:00 16.7 21 Sudoeste 42 Sur 0 -- -- 81
2017-11-28 13:00:00 17 24 Sur 41 Sur 0 -- -- 77
2017-11-28 12:00:00 16.8 26 Sur 44 Sur 0 -- -- 74
2017-11-28 11:00:00 16.5 22 Sur 37 Sudoeste 0 -- -- 72
2017-11-28 10:00:00 16 16 Sudoeste 24 Sudoeste 0 -- -- 74
2017-11-28 09:00:00 13.7 16 Sur 23 Sudoeste 0 -- -- 82
2017-11-28 08:00:00 12.6 15 Sur 17 Sur 0 -- -- 78
2017-11-28 07:00:00 12.1 13 Sur 18 Sudoeste 0 -- -- 80
2017-11-28 06:00:00 12 16 Sudoeste 23 Sudoeste 0 -- -- 80
2017-11-28 05:00:00 12.2 19 Sudoeste 23 Sudoeste 0 -- -- 80
2017-11-28 04:00:00 11.3 14 Oeste 17 Sudoeste 0 -- -- 84
2017-11-28 03:00:00 12.1 13 Sudoeste 15 Sudoeste 0 -- -- 78
2017-11-28 02:00:00 12.5 13 Sudoeste 17 Sudoeste 0 -- -- 77
2017-11-28 01:00:00 12 14 Sudoeste 16 Sudoeste 0 -- -- 80
2017-11-28 00:00:00 12.2 14 Sudoeste 20 Sudoeste 0 -- -- 83
2017-11-27 23:00:00 12.2 18 Sudoeste 21 Sudoeste 0 -- -- 86
2017-11-27 22:00:00 12.2 16 Sudoeste 19 Sudoeste 0 -- -- 88
2017-11-27 21:00:00 12.7 8 Sur 10 Sur 0 -- -- 87
2017-11-27 20:00:00 12.6 7 Sur 9 Sur 0 -- -- 86
2017-11-27 19:00:00 12.2 5 Sur 8 Sur 0 -- -- 83
2017-11-27 18:00:00 12.1 5 Sudoeste 9 Sudoeste 0 -- -- 82
2017-11-27 17:00:00 13 0 Calma 8 Noroeste 0 -- -- 78
2017-11-27 16:00:00 13.9 4 Norte 12 Norte 0 -- -- 76
2017-11-27 15:00:00 13.4 8 Norte 18 Norte 0 -- -- 77
2017-11-27 14:00:00 13.5 9 Norte 17 Norte 0 -- -- 75
2017-11-27 13:00:00 13.6 12 Norte 22 Noroeste 0 -- -- 75
2017-11-27 12:00:00 14.3 15 Norte 28 Norte 0 -- -- 74
2017-11-27 11:00:00 13.5 19 Norte 32 Norte 0 -- -- 77
2017-11-27 10:00:00 12.5 23 Norte 33 Norte 0 -- -- 82
2017-11-27 09:00:00 12.1 25 Norte 34 Norte 0 -- -- 83
2017-11-27 08:00:00 11.5 13 Norte 19 Norte 0 -- -- 95
2017-11-27 07:00:00 10.8 10 Noroeste 14 Noroeste 0 -- -- 92
2017-11-27 06:00:00 10.4 8 Oeste 18 Noroeste 0 -- -- 93
2017-11-27 05:00:00 11.1 11 Norte 22 Noroeste 0 -- -- 94
2017-11-27 04:00:00 10.3 14 Noroeste 20 Noroeste 0 -- -- 93
2017-11-27 03:00:00 10.8 10 Noroeste 29 Nordeste 0 -- -- 92
2017-11-27 02:00:00 9.9 10 Oeste 22 Norte 0 -- -- 97
2017-11-27 01:00:00 10.7 11 Noroeste 22 Noroeste 0 -- -- 97
2017-11-27 00:00:00 10.3 13 Oeste 23 Norte 0 -- -- 95
2017-11-26 23:00:00 11.3 17 Norte 31 Norte 0 -- -- 89
2017-11-26 22:00:00 11.2 22 Norte 28 Norte 0 -- -- 92
2017-11-26 21:00:00 10 10 Oeste 19 Oeste 0 -- -- 98
2017-11-26 20:00:00 9.8 15 Oeste 21 Oeste 1.2 -- -- 98
2017-11-26 19:00:00 10.4 13 Oeste 41 Oeste 0.7 -- -- 97
2017-11-26 18:00:00 11.8 10 Noroeste 31 Norte 0.2 -- -- 93
2017-11-26 17:00:00 12.2 20 Norte 29 Norte 0 -- -- 88
2017-11-26 16:00:00 12.4 22 Norte 36 Norte 0 -- -- 85
2017-11-26 15:00:00 12.4 27 Norte 45 Norte 0 -- -- 81
2017-11-26 14:00:00 11.7 31 Norte 43 Norte 0 -- -- 86
2017-11-26 13:00:00 11.8 35 Norte 47 Norte 0 -- -- 85
2017-11-26 12:00:00 11.6 33 Norte 53 Norte 0.5 -- -- 86
2017-11-26 11:00:00 11.6 37 Norte 55 Norte 0.2 -- -- 89
2017-11-26 10:00:00 11.8 44 Norte 60 Norte 0.1 -- -- 89
2017-11-26 09:00:00 11.9 39 Norte 53 Norte 0 -- -- 86
2017-11-26 08:00:00 12.6 39 Norte 54 Nordeste 0 -- -- 84
2017-11-26 07:00:00 12.4 43 Nordeste 57 Norte 0 -- -- 87
2017-11-26 06:00:00 12.3 48 Norte 66 Norte 0 -- -- 89
2017-11-26 05:00:00 12.4 45 Norte 59 Norte 0 -- -- 88
2017-11-26 04:00:00 12.6 47 Norte 60 Norte 0 -- -- 85
2017-11-26 03:00:00 12.7 41 Nordeste 57 Norte 0 -- -- 86
2017-11-26 02:00:00 13.8 33 Nordeste 44 Nordeste 0 -- -- 77
2017-11-26 01:00:00 13.8 31 Nordeste 44 Nordeste 0 -- -- 80
2017-11-26 00:00:00 13.9 33 Nordeste 48 Nordeste 0 -- -- 81
2017-11-25 23:00:00 14.1 37 Nordeste 47 Nordeste 0 -- -- 83
2017-11-25 22:00:00 14.6 35 Nordeste 45 Nordeste 0 -- -- 83
2017-11-25 21:00:00 15 40 Nordeste 49 Nordeste 0 -- -- 83
2017-11-25 20:00:00 15.4 40 Nordeste 45 Nordeste 0 -- -- 84
2017-11-25 19:00:00 15.6 37 Nordeste 46 Nordeste 0 -- -- 90
2017-11-25 18:00:00 16.3 34 Nordeste 42 Nordeste 0 -- -- 91
2017-11-25 17:00:00 17.3 32 Norte 69 Norte 0 -- -- 92
2017-11-25 16:00:00 19 39 Norte 54 Norte 0 -- -- 79
2017-11-25 15:00:00 20 21 Norte 41 Norte 0 -- -- 67
2017-11-25 14:00:00 19.8 17 Norte 36 Norte 0 -- -- 62
2017-11-25 13:00:00 20.5 10 Noroeste 27 Oeste 0 -- -- 52
2017-11-25 12:00:00 19.4 18 Oeste 33 Sudoeste 0 -- -- 71
2017-11-25 11:00:00 18.5 22 Sudoeste 40 Sudoeste 0 -- -- 79
2017-11-25 10:00:00 18.2 29 Sudoeste 49 Sudoeste 0 -- -- 83
2017-11-25 09:00:00 17.7 32 Sudoeste 43 Sudoeste 0 -- -- 81
2017-11-25 08:00:00 17 25 Sudoeste 39 Sudoeste 0 -- -- 88
2017-11-25 07:00:00 17.3 23 Sudoeste 34 Sudoeste 0 -- -- 84
2017-11-25 06:00:00 17.6 26 Sudoeste 40 Sudoeste 0 -- -- 70
2017-11-25 05:00:00 18 30 Sudoeste 42 Sudoeste 0 -- -- 67
2017-11-25 04:00:00 18.9 33 Sudoeste 45 Sudoeste 0 -- -- 44
2017-11-25 03:00:00 18.7 33 Sudoeste 45 Sudoeste 0 -- -- 41
2017-11-25 02:00:00 18.2 36 Sudoeste 46 Sudoeste 0 -- -- 48
2017-11-25 01:00:00 17.3 28 Sudoeste 40 Sudoeste 0 -- -- 84
2017-11-25 00:00:00 17.8 28 Sudoeste 44 Sudoeste 0 -- -- 80
2017-11-24 23:00:00 17.5 29 Sudoeste 39 Sudoeste 0 -- -- 85
2017-11-24 22:00:00 17.5 24 Sudoeste 40 Sudoeste 0 -- -- 93
2017-11-24 21:00:00 17.4 24 Sudoeste 39 Sudoeste 0 -- -- 95
2017-11-24 20:00:00 17.4 26 Sudoeste 41 Sudoeste 0 -- -- 93
2017-11-24 19:00:00 18.2 28 Sudoeste 41 Sudoeste 0 -- -- 91
2017-11-24 18:00:00 18.8 24 Sudoeste 30 Sudoeste 0 -- -- 83
2017-11-24 17:00:00 19.9 17 Sudoeste 27 Sudoeste 0 -- -- 74
2017-11-24 16:00:00 20.6 15 Sudoeste 23 Sudoeste 0 -- -- 71
2017-11-24 15:00:00 21.4 9 Sur 23 Sur 0 -- -- 79
2017-11-24 14:00:00 20.7 17 Sur 28 Sur 0 -- -- 89
2017-11-24 13:00:00 19.2 19 Sur 28 Sur 0 -- -- 91
2017-11-24 12:00:00 20.6 20 Sur 25 Sur 0 -- -- 88
2017-11-24 11:00:00 18.4 13 Sudoeste 19 Sudoeste 0 -- -- 97
2017-11-24 10:00:00 17.6 9 Sudoeste 18 Sudoeste 0 -- -- 98
2017-11-24 09:00:00 16.3 13 Sur 21 Sudoeste 0 -- -- 98
2017-11-24 08:00:00 15.9 12 Sur 24 Sudoeste 0 -- -- 98
2017-11-24 07:00:00 15.5 15 Sur 24 Sur 0 -- -- 98
2017-11-24 06:00:00 15.6 17 Sur 24 Sur 0 -- -- 98
2017-11-24 05:00:00 15.2 14 Sur 23 Sur 0 -- -- 98
2017-11-24 04:00:00 15.6 20 Sur 28 Sur 0 -- -- 98
2017-11-24 03:00:00 15.5 21 Sur 25 Sur 0 -- -- 98
2017-11-24 02:00:00 15.3 12 Sudoeste 24 Sudoeste 0 -- -- 98
2017-11-24 01:00:00 15.3 11 Sudoeste 18 Sudoeste 0 -- -- 98
2017-11-24 00:00:00 15.4 15 Sudoeste 23 Sur 0 -- -- 98
2017-11-23 23:00:00 16.1 17 Sur 22 Sur 0 -- -- 96
2017-11-23 22:00:00 15.4 13 Sur 22 Sur 0 -- -- 94
2017-11-23 21:00:00 15.5 13 Sudoeste 17 Sur 0 -- -- 91
2017-11-23 20:00:00 15.5 13 Sur 15 Sudoeste 0 -- -- 89
2017-11-23 19:00:00 15.8 13 Sudoeste 15 Sudoeste 0 -- -- 89
2017-11-23 18:00:00 17 10 Sudoeste 16 Sur 0 -- -- 92
2017-11-23 17:00:00 18.1 13 Sur 32 Sur 0 -- -- 92
2017-11-23 16:00:00 19 20 Sur 30 Sur 0 -- -- 89
2017-11-23 15:00:00 19.7 24 Sur 28 Sur 0 -- -- 79
2017-11-23 14:00:00 20.8 21 Sur 24 Sur 0 -- -- 82
2017-11-23 13:00:00 21 4 Sudeste 15 Sur 0 -- -- 79
2017-11-23 12:00:00 21.2 7 Sudoeste 19 Sur 0 -- -- 72
2017-11-23 11:00:00 20.3 9 Sur 21 Sur 0 -- -- 82
2017-11-23 10:00:00 18.7 11 Sur 17 Sur 0 -- -- 86
2017-11-23 09:00:00 16.9 12 Sudoeste 16 Sudoeste 0 -- -- 93
2017-11-23 08:00:00 14 8 Sudoeste 13 Sur 0 -- -- 97
2017-11-23 07:00:00 14.6 4 Sur 17 Sudoeste 0 -- -- 96
2017-11-23 06:00:00 14.5 9 Sudoeste 10 Sudoeste 0 -- -- 96
2017-11-23 05:00:00 14.3 6 Sur 12 Sur 0 -- -- 96
2017-11-23 04:00:00 14.9 10 Sur 12 Sur 0 -- -- 96
2017-11-23 03:00:00 15 10 Sur 14 Sur 0 -- -- 96
2017-11-23 02:00:00 15.2 12 Sur 18 Sur 0 -- -- 96
2017-11-23 01:00:00 14.9 15 Sur 26 Sur 0 -- -- 95
2017-11-23 00:00:00 15.6 22 Sur 30 Sur 0 -- -- 95
2017-11-22 23:00:00 15.4 15 Sur 20 Sur 0 -- -- 95
2017-11-22 22:00:00 15.4 17 Sur 22 Sur 0 -- -- 95
2017-11-22 21:00:00 15.6 15 Sur 19 Sur 0 -- -- 93
2017-11-22 20:00:00 15.7 14 Sur 21 Sur 0 -- -- 92
2017-11-22 19:00:00 15.9 13 Sur 19 Sur 0 -- -- 92
2017-11-22 18:00:00 16.3 14 Sur 30 Sudeste 0 -- -- 91
2017-11-22 17:00:00 16.7 20 Sur 28 Sur 0 -- -- 90
2017-11-22 16:00:00 17 18 Sur 29 Sur 0 -- -- 89
2017-11-22 15:00:00 19.4 23 Sur 28 Sur 0 -- -- 80
2017-11-22 14:00:00 19.8 19 Sur 26 Sur 0 -- -- 77
2017-11-22 13:00:00 20.1 21 Sur 31 Sur 0 -- -- 77
2017-11-22 12:00:00 17.4 23 Sur 33 Sur 0 -- -- 86
2017-11-22 11:00:00 17.7 17 Sur 26 Sudoeste 0 -- -- 87
2017-11-22 10:00:00 16.8 14 Sur 19 Sur 0 -- -- 89
2017-11-22 09:00:00 16.6 6 Sur 14 Sur 0 -- -- 92
2017-11-22 08:00:00 14 13 Sur 15 Sudoeste 0 -- -- 95
2017-11-22 07:00:00 13.9 15 Sudoeste 18 Sudoeste 0 -- -- 95
2017-11-22 06:00:00 14.3 15 Sur 17 Sur 0 -- -- 95
2017-11-22 05:00:00 14.5 13 Sur 14 Sur 0 -- -- 95
2017-11-22 04:00:00 14.1 12 Sur 14 Sur 0 -- -- 95
2017-11-22 03:00:00 14.4 13 Sudoeste 15 Sudoeste 0 -- -- 95
2017-11-22 02:00:00 14.4 13 Sudoeste 19 Sur 0 -- -- 95
2017-11-22 01:00:00 14.3 14 Sudoeste 18 Sudoeste 0 -- -- 95
2017-11-22 00:00:00 14.3 15 Sudoeste 16 Sudoeste 0 -- -- 95
2017-11-21 23:00:00 14.4 12 Sur 15 Sudoeste 0 -- -- 95
2017-11-21 22:00:00 14.4 11 Sur 14 Sur 0 -- -- 95
2017-11-21 21:00:00 14.5 10 Sur 14 Sur 0 -- -- 95
2017-11-21 20:00:00 15.1 10 Sudoeste 23 Sudoeste 0 -- -- 93
2017-11-21 19:00:00 15.9 17 Sudoeste 26 Sudoeste 0 -- -- 92
2017-11-21 18:00:00 16.8 13 Sudoeste 28 Sudeste 0 -- -- 92
2017-11-21 17:00:00 17.8 18 Sur 24 Sur 0 -- -- 89
2017-11-21 16:00:00 17.1 4 Este 12 Nordeste 0 -- -- 86
2017-11-21 15:00:00 17.6 10 Nordeste 17 Norte 0 -- -- 86
2017-11-21 14:00:00 17.3 14 Norte 17 Norte 0 -- -- 84
2017-11-21 13:00:00 21.1 5 Sur 19 Sudoeste 0 -- -- 74
2017-11-21 12:00:00 18.1 14 Sudoeste 22 Sudoeste 0 -- -- 86
2017-11-21 11:00:00 20.1 11 Sur 19 Sur 0 -- -- 79
2017-11-21 10:00:00 19 8 Sudoeste 13 Sudoeste 0 -- -- 82
2017-11-21 09:00:00 17.4 4 Sudoeste 10 Sudoeste 0 -- -- 89
2017-11-21 08:00:00 14.3 8 Sudoeste 10 Sudoeste 0 -- -- 95
2017-11-21 07:00:00 13.5 6 Oeste 13 Oeste 0 -- -- 95
2017-11-21 06:00:00 13.5 8 Oeste 15 Sudoeste 0 -- -- 95
2017-11-21 05:00:00 13.8 14 Sudoeste 17 Sudoeste 0 -- -- 95
2017-11-21 04:00:00 14.1 4 Sur 8 Sur 0 -- -- 95
2017-11-21 03:00:00 14.1 5 Sur 8 Sur 0 -- -- 94
2017-11-21 02:00:00 14.4 4 Oeste 8 Oeste 0 -- -- 93
2017-11-21 01:00:00 14.5 6 Oeste 9 Noroeste 0 -- -- 93
2017-11-21 00:00:00 14.7 7 Noroeste 9 Noroeste 0 -- -- 92
2017-11-20 23:00:00 14.8 7 Oeste 13 Sudoeste 0 -- -- 92
2017-11-20 22:00:00 14.8 9 Sudoeste 13 Sudoeste 0 -- -- 89
2017-11-20 21:00:00 14.9 10 Sur 11 Sur 0 -- -- 89
2017-11-20 20:00:00 14.9 10 Sur 10 Sur 0 -- -- 90
2017-11-20 19:00:00 15.5 6 Sur 9 Sur 0 -- -- 89
2017-11-20 18:00:00 16 4 Sur 10 Nordeste 0 -- -- 88
2017-11-20 17:00:00 15.8 7 Norte 15 Norte 0 -- -- 87
2017-11-20 16:00:00 16.6 12 Norte 18 Norte 0 -- -- 80
2017-11-20 15:00:00 19 10 Norte 18 Norte 0 -- -- 71
2017-11-20 14:00:00 20.1 14 Norte 21 Norte 0 -- -- 68
2017-11-20 13:00:00 19.7 15 Norte 23 Norte 0 -- -- 69
2017-11-20 12:00:00 19.6 15 Norte 22 Norte 0 -- -- 72
2017-11-20 11:00:00 19 14 Noroeste 22 Norte 0 -- -- 76
2017-11-20 10:00:00 18.5 9 Noroeste -- -- -- -- -- 80
2017-11-20 09:00:00 -- -- -- -- -- -- -- -- --
2017-11-20 08:00:00 -- -- -- -- -- -- -- -- --
2017-11-20 07:00:00 -- -- -- -- -- -- -- -- --
2017-11-20 06:00:00 -- -- -- -- -- -- -- -- --
2017-11-20 05:00:00 -- -- -- -- -- -- -- -- --
2017-11-20 04:00:00 -- -- -- -- -- -- -- -- --
2017-11-20 03:00:00 -- -- -- -- -- -- -- -- --
2017-11-20 02:00:00 -- -- -- -- -- -- -- -- --
2017-11-20 01:00:00 -- -- -- -- -- -- -- -- --
2017-11-20 00:00:00 -- -- -- -- -- -- -- -- --
2017-11-19 23:00:00 -- -- -- -- -- -- -- -- --
2017-11-19 22:00:00 18.1 4 Oeste 5 Noroeste 0 -- -- 80
2017-11-19 21:00:00 14.4 0 Calma -- -- 0 -- -- 89
2017-11-19 20:00:00 14.1 0 Calma 5 Noroeste 0 -- -- 89
2017-11-19 19:00:00 14 5 Sudoeste 14 Sudoeste 0 -- -- 90
2017-11-19 18:00:00 14.1 13 Sudoeste 14 Sudoeste 0 -- -- 90
2017-11-19 17:00:00 14.3 7 Oeste 9 Oeste 0 -- -- 89
2017-11-19 16:00:00 14.5 6 Oeste 12 Noroeste 0 -- -- 89
2017-11-19 15:00:00 14.8 11 Noroeste 12 Noroeste 0 -- -- 89
2017-11-19 14:00:00 14.6 10 Noroeste 14 Noroeste 0 -- -- 89
2017-11-19 13:00:00 14.9 13 Noroeste 18 Noroeste 0 -- -- 89
2017-11-19 12:00:00 15.4 15 Norte 22 Norte 0 -- -- 89
2017-11-19 11:00:00 15.5 12 Noroeste 20 Norte 0 -- -- 88
2017-11-19 10:00:00 15.4 9 Noroeste 19 Noroeste 0 -- -- 85
2017-11-19 09:00:00 15.2 11 Noroeste 17 Noroeste 0 -- -- 86
2017-11-19 08:00:00 15.6 12 Noroeste 22 Noroeste 0 -- -- 85
2017-11-19 07:00:00 16.2 18 Norte 31 Norte 0 -- -- 84
2017-11-19 06:00:00 16.7 23 Norte 36 Norte 0 -- -- 82
2017-11-19 05:00:00 17.6 26 Norte 36 Norte 0 -- -- 74
2017-11-19 04:00:00 18.5 24 Noroeste 37 Noroeste 0 -- -- 74
2017-11-19 03:00:00 18.9 23 Noroeste 33 Norte 0 -- -- 77
2017-11-19 02:00:00 19.6 20 Noroeste 32 Norte 0 -- -- 72
2017-11-19 01:00:00 20.4 14 Norte 23 Norte 0 -- -- 68
2017-11-19 00:00:00 19.2 2 Noroeste 13 Sur 0 -- -- 76
2017-11-18 23:00:00 18 8 Sudoeste 17 Sudoeste 0 -- -- 84
2017-11-18 22:00:00 15.7 14 Sudoeste 18 Sudoeste 0 -- -- 95
2017-11-18 21:00:00 13.4 16 Sudoeste 19 Sudoeste 0 -- -- 96
2017-11-18 20:00:00 13.1 14 Sudoeste 18 Sudoeste 0 -- -- 95
2017-11-18 19:00:00 13.2 12 Sudoeste 13 Sudoeste 0 -- -- 93
2017-11-18 18:00:00 13.4 8 Sudoeste 10 Sudoeste 0 -- -- 92
2017-11-18 17:00:00 13.6 5 Sur 6 Sudoeste 0 -- -- 90
2017-11-18 16:00:00 14 0 Calma -- -- 0 -- -- 90
2017-11-18 15:00:00 13.9 0 Calma -- -- 0 -- -- 90
2017-11-18 14:00:00 13.7 0 Calma -- -- 0 -- -- 89
2017-11-18 13:00:00 13.8 0 Calma -- -- 0 -- -- 89
2017-11-18 12:00:00 13.9 0 Calma -- -- 0 -- -- 89
2017-11-18 11:00:00 14.1 0 Calma 10 Norte 0 -- -- 88
2017-11-18 10:00:00 14.7 4 Norte 13 Norte 0 -- -- 87
2017-11-18 09:00:00 14.8 12 Norte 23 Norte 0 -- -- 86
2017-11-18 08:00:00 14.9 12 Norte 21 Norte 0 -- -- 86
2017-11-18 07:00:00 14.9 10 Norte 22 Nordeste 0 -- -- 86
2017-11-18 06:00:00 14.9 15 Norte 28 Nordeste 0 -- -- 84
2017-11-18 05:00:00 14.9 22 Norte 38 Norte 0 -- -- 86
2017-11-18 04:00:00 15.4 31 Norte 41 Norte 0 -- -- 83
2017-11-18 03:00:00 15.7 32 Norte 40 Norte 0 -- -- 82
2017-11-18 02:00:00 15.9 32 Norte 42 Norte 0 -- -- 78
2017-11-18 01:00:00 18.1 21 Norte 28 Norte 0 -- -- 77
2017-11-18 00:00:00 19 14 Norte 20 Norte 0 -- -- 77
2017-11-17 23:00:00 17.9 14 Norte 23 Norte 0 -- -- 81
2017-11-17 22:00:00 15.7 19 Norte 28 Norte 0 -- -- 86
2017-11-17 21:00:00 15.2 21 Norte 26 Norte 0 -- -- 86
2017-11-17 20:00:00 15 10 Noroeste 16 Noroeste 0 -- -- 92
2017-11-17 19:00:00 14.7 13 Noroeste 18 Noroeste 0 -- -- 91
2017-11-17 18:00:00 14.8 11 Noroeste 17 Noroeste 0 -- -- 88
2017-11-17 17:00:00 14.3 14 Oeste 19 Oeste 0 -- -- 77
2017-11-17 16:00:00 14.1 16 Oeste 20 Noroeste 0 -- -- 78
2017-11-17 15:00:00 14.6 12 Noroeste 21 Noroeste 0 -- -- 83
2017-11-17 14:00:00 14.6 13 Noroeste 22 Noroeste 0 -- -- 88
2017-11-17 13:00:00 14.2 12 Noroeste 19 Noroeste 0 -- -- 89
2017-11-17 12:00:00 14.5 10 Noroeste 17 Noroeste 0 -- -- 89
2017-11-17 11:00:00 19.2 7 Noroeste 21 Norte 0 -- -- 69
2017-11-17 10:00:00 19.2 6 Noroeste 18 Noroeste 0 -- -- 74
2017-11-17 09:00:00 18 11 Noroeste 18 Oeste 0 -- -- 81
2017-11-17 08:00:00 15.6 12 Oeste 19 Oeste 0 -- -- 89
2017-11-17 07:00:00 13.3 13 Oeste 16 Oeste 0.1 -- -- 92
2017-11-17 06:00:00 12.7 10 Noroeste 17 Noroeste 0 -- -- 92
2017-11-17 05:00:00 12.7 13 Noroeste 17 Noroeste 0 -- -- 91
2017-11-17 04:00:00 13 14 Noroeste 17 Noroeste 0 -- -- 90
2017-11-17 03:00:00 12.8 9 Noroeste 13 Noroeste 0 -- -- 89
2017-11-17 02:00:00 13.1 9 Noroeste 13 Noroeste 0 -- -- 88
2017-11-17 01:00:00 12.7 10 Noroeste 13 Noroeste 0 -- -- 87
2017-11-17 00:00:00 13 10 Noroeste 12 Noroeste 0 -- -- 87
2017-11-16 23:00:00 13.4 11 Noroeste 14 Noroeste 0 -- -- 86
2017-11-16 22:00:00 13.4 13 Noroeste 15 Noroeste 0 -- -- 86
2017-11-16 21:00:00 13.3 11 Noroeste 13 Noroeste 0 -- -- 84
2017-11-16 20:00:00 13.4 11 Noroeste 13 Noroeste 0 -- -- 83
2017-11-16 19:00:00 14.3 11 Noroeste 21 Norte 0 -- -- 81
2017-11-16 18:00:00 14.7 13 Norte 27 Norte 0 -- -- 79
2017-11-16 17:00:00 14.8 20 Norte 30 Norte 0 -- -- 78
2017-11-16 16:00:00 15.6 22 Norte 27 Norte 0 -- -- 74
2017-11-16 15:00:00 16.9 19 Norte 27 Norte 0 -- -- 68
2017-11-16 14:00:00 17.7 21 Norte 27 Norte 0 -- -- 68
2017-11-16 13:00:00 18.5 19 Norte 27 Norte 0 -- -- 65
2017-11-16 12:00:00 17.6 21 Norte 26 Norte 0 -- -- 67
2017-11-16 11:00:00 18.4 14 Norte 21 Norte 0 -- -- 71
2017-11-16 10:00:00 17.8 15 Norte 26 Norte 0 -- -- 72
2017-11-16 09:00:00 17.1 16 Norte 27 Norte 0 -- -- 77
2017-11-16 08:00:00 15.8 12 Noroeste 24 Noroeste 0 -- -- 80
2017-11-16 07:00:00 14 15 Noroeste 23 Norte 0 -- -- 84
2017-11-16 06:00:00 13.7 14 Noroeste 20 Noroeste 0 -- -- 84
2017-11-16 05:00:00 13.5 12 Noroeste 18 Noroeste 0 -- -- 80
2017-11-16 04:00:00 13.4 10 Noroeste 23 Noroeste 0 -- -- 77
2017-11-16 03:00:00 12.7 13 Noroeste 19 Noroeste 0 -- -- 75
2017-11-16 02:00:00 12.6 13 Noroeste 18 Noroeste 0 -- -- 69
2017-11-16 01:00:00 12.7 12 Oeste 17 Oeste 0 -- -- 67
2017-11-16 00:00:00 12.6 10 Oeste 15 Noroeste 0 -- -- 73
2017-11-15 23:00:00 12.8 11 Oeste 16 Oeste 0 -- -- 76
2017-11-15 22:00:00 13 13 Noroeste 23 Norte 0 -- -- 70
2017-11-15 21:00:00 14.1 15 Norte 26 Norte 0 -- -- 64
2017-11-15 20:00:00 14.2 18 Norte 29 Norte 0 -- -- 59
2017-11-15 19:00:00 14.5 23 Norte 33 Norte 0 -- -- 61
2017-11-15 18:00:00 14.5 25 Norte 33 Norte 0 -- -- 74
2017-11-15 17:00:00 14.6 24 Norte 40 Norte 0 -- -- 74
2017-11-15 16:00:00 15.1 28 Norte 42 Norte 0 -- -- 65
2017-11-15 15:00:00 16.3 30 Noroeste 50 Norte 0 -- -- 60
2017-11-15 14:00:00 17.3 27 Noroeste 38 Noroeste 0 -- -- 60
2017-11-15 13:00:00 16.4 30 Norte 50 Noroeste 0 -- -- 61
2017-11-15 12:00:00 17.3 20 Norte 39 Norte 0 -- -- 59
2017-11-15 11:00:00 16.6 26 Norte 46 Norte 0 -- -- 62
2017-11-15 10:00:00 16.6 31 Norte 51 Norte 0 -- -- 62
2017-11-15 09:00:00 15.6 33 Norte 51 Norte 0 -- -- 67
2017-11-15 08:00:00 14.7 33 Norte 62 Norte 0 -- -- 66
2017-11-15 07:00:00 14.4 36 Noroeste 58 Norte 0 -- -- 68
2017-11-15 06:00:00 13.7 17 Noroeste 38 Noroeste 0 -- -- 68
2017-11-15 05:00:00 13.3 13 Noroeste 52 Norte 0 -- -- 70
2017-11-15 04:00:00 14 37 Norte 52 Norte 0 -- -- 79
2017-11-15 03:00:00 13.6 40 Norte 58 Norte 0 -- -- 77
2017-11-15 02:00:00 13.5 41 Norte 60 Norte 0 -- -- 76
2017-11-15 01:00:00 13.2 46 Norte 65 Norte 0 -- -- 74
2017-11-15 00:00:00 13.2 54 Norte 66 Norte 0 -- -- 71